createdAt,value
2018-07-19T05:48:38.132Z,98787.37
2018-07-19T05:51:06.631Z,98788.48
2018-07-19T05:53:34.764Z,98787.02
2018-07-19T05:56:02.940Z,98786.16
2018-07-19T05:58:31.055Z,98784.27
2018-07-19T06:00:59.353Z,98783.38
2018-07-19T06:03:27.461Z,98785.75
2018-07-19T06:05:55.827Z,98792.09
2018-07-19T06:08:23.911Z,98789.87
2018-07-19T06:10:52.051Z,98800.16
2018-07-19T06:13:20.231Z,98801.31
2018-07-19T06:15:48.878Z,98806.25
2018-07-19T06:18:16.987Z,98794.17
2018-07-19T06:20:45.647Z,98798.27
2018-07-19T06:23:13.735Z,98787.05
2018-07-19T06:25:41.894Z,98797.83
2018-07-19T06:28:09.995Z,98791.14
2018-07-19T06:30:38.371Z,98806.48
2018-07-19T06:33:06.459Z,98803.90
2018-07-19T06:35:34.560Z,98806.36
2018-07-19T06:38:02.666Z,98811.91
2018-07-19T06:40:30.779Z,98807.45
2018-07-19T06:42:58.872Z,98817.27
2018-07-19T06:45:33.702Z,98810.16
2018-07-19T06:48:01.791Z,98818.75
2018-07-19T06:50:29.888Z,98830.80
2018-07-19T06:52:58.051Z,98827.51
2018-07-19T06:55:26.225Z,98828.44
2018-07-19T06:57:54.619Z,98824.98
2018-07-19T07:00:23.023Z,98822.94
2018-07-19T07:02:51.119Z,98827.35
2018-07-19T07:05:19.203Z,98824.16
2018-07-19T07:07:47.299Z,98824.10
2018-07-19T07:10:15.415Z,98817.78
2018-07-19T07:12:43.585Z,98819.69
2018-07-19T07:15:11.741Z,98821.63
2018-07-19T07:17:39.859Z,98824.34
2018-07-19T07:20:07.960Z,98818.59
2018-07-19T07:22:36.085Z,98815.27
2018-07-19T07:25:04.380Z,98815.91
2018-07-19T07:27:32.467Z,98822.74
2018-07-19T07:30:00.890Z,98816.34
2018-07-19T07:32:28.972Z,98813.80
2018-07-19T07:34:57.133Z,98824.23
2018-07-19T07:37:25.261Z,98827.11
2018-07-19T07:39:53.355Z,98828.78
2018-07-19T07:42:21.462Z,98828.83
2018-07-19T07:44:49.539Z,98829.75
2018-07-19T07:47:17.630Z,98828.72
2018-07-19T07:49:45.734Z,98827.80
2018-07-19T07:52:13.892Z,98832.56
2018-07-19T07:54:41.983Z,98827.21
2018-07-19T07:57:10.148Z,98822.01
2018-07-19T07:59:38.261Z,98828.77
2018-07-19T08:02:06.368Z,98824.41
2018-07-19T08:04:34.483Z,98827.28
2018-07-19T08:07:02.927Z,98824.23
2018-07-19T08:09:31.056Z,98822.77
2018-07-19T08:11:59.165Z,98822.34
2018-07-19T08:14:27.271Z,98819.45
2018-07-19T08:16:55.404Z,98813.66
2018-07-19T08:19:23.551Z,98816.06
2018-07-19T08:21:51.660Z,98810.98
2018-07-19T08:24:19.771Z,98816.13
2018-07-19T08:26:47.856Z,98809.01
2018-07-19T08:29:15.964Z,98807.16
2018-07-19T08:31:44.071Z,98807.95
2018-07-19T08:34:12.280Z,98812.00
2018-07-19T08:36:40.432Z,98809.84
2018-07-19T08:39:11.524Z,98808.27
2018-07-19T08:41:39.665Z,98814.57
2018-07-19T08:44:07.971Z,98810.02
2018-07-19T08:46:36.093Z,98811.98
2018-07-19T08:49:04.210Z,98814.02
2018-07-19T08:51:32.882Z,98812.44
2018-07-19T08:54:00.990Z,98806.94
2018-07-19T08:56:29.627Z,98808.83
2018-07-19T08:58:58.154Z,98807.30
2018-07-19T09:01:26.266Z,98812.44
2018-07-19T09:03:54.708Z,98808.28
2018-07-19T09:06:23.776Z,98801.06
2018-07-19T09:08:51.919Z,98801.93
2018-07-19T09:11:20.137Z,98797.03
2018-07-19T09:13:48.323Z,98796.63
2018-07-19T09:16:16.444Z,98789.75
2018-07-19T09:18:44.604Z,98796.77
2018-07-19T09:21:12.734Z,98798.51
2018-07-19T09:23:40.852Z,98802.52
2018-07-19T09:26:08.997Z,98793.91
2018-07-19T09:28:37.114Z,98788.98
2018-07-19T09:31:05.589Z,98785.91
2018-07-19T09:33:33.719Z,98789.76
2018-07-19T09:36:01.820Z,98795.98
2018-07-19T09:38:30.098Z,98791.80
2018-07-19T09:40:58.169Z,98792.67
2018-07-19T09:43:26.290Z,98794.58
2018-07-19T09:45:54.391Z,98790.54
2018-07-19T09:48:23.451Z,98794.45
2018-07-19T09:50:52.605Z,98792.97
2018-07-19T09:53:20.720Z,98795.90
2018-07-19T09:55:49.112Z,98800.41
2018-07-19T09:58:17.163Z,98793.09
2018-07-19T10:00:50.654Z,98795.31
2018-07-19T10:03:18.867Z,98787.39
2018-07-19T10:05:47.048Z,98790.45
2018-07-19T10:08:15.135Z,98789.95
2018-07-19T10:10:43.237Z,98796.07
2018-07-19T10:13:11.412Z,98795.53
2018-07-19T10:15:39.503Z,98793.62
2018-07-19T10:18:07.593Z,98787.16
2018-07-19T10:20:35.754Z,98791.02
2018-07-19T10:23:03.824Z,98788.20
2018-07-19T10:25:31.951Z,98791.33
2018-07-19T10:28:00.069Z,98792.10
2018-07-19T10:30:28.173Z,98785.27
2018-07-19T10:32:57.280Z,98787.14
2018-07-19T10:35:25.447Z,98784.42
2018-07-19T10:37:54.485Z,98781.28
2018-07-19T10:40:22.579Z,98784.03
2018-07-19T10:42:50.680Z,98775.27
2018-07-19T10:45:18.816Z,98779.72
2018-07-19T10:47:46.925Z,98774.11
2018-07-19T10:50:15.119Z,98777.48
2018-07-19T10:52:43.207Z,98775.42
2018-07-19T10:55:11.817Z,98777.85
2018-07-19T10:57:39.952Z,98772.88
2018-07-19T11:00:08.270Z,98767.14
2018-07-19T11:02:36.387Z,98775.28
2018-07-19T11:05:05.103Z,98766.32
2018-07-19T11:07:33.211Z,98768.71
2018-07-19T11:10:01.454Z,98774.25
2018-07-19T11:12:29.517Z,98770.95
2018-07-19T11:14:57.607Z,98760.05
2018-07-19T11:17:25.879Z,98759.13
2018-07-19T11:19:54.039Z,98749.00
2018-07-19T11:22:22.146Z,98748.95
2018-07-19T11:24:50.342Z,98748.40
2018-07-19T11:27:18.456Z,98745.75
2018-07-19T11:29:46.546Z,98749.75
2018-07-19T11:32:14.643Z,98746.22
2018-07-19T11:34:42.739Z,98744.42
2018-07-19T11:37:10.950Z,98742.97
2018-07-19T11:39:39.059Z,98732.17
2018-07-19T11:42:07.293Z,98729.17
2018-07-19T11:44:35.402Z,98727.92
2018-07-19T11:47:03.542Z,98715.63
2018-07-19T11:49:31.663Z,98710.31
2018-07-19T11:51:59.744Z,98707.89
2018-07-19T11:54:27.917Z,98708.11
2018-07-19T11:56:56.021Z,98710.08
2018-07-19T11:59:24.222Z,98698.68
2018-07-19T12:01:52.415Z,98704.14
2018-07-19T12:04:20.732Z,98696.79
2018-07-19T12:06:48.869Z,98699.27
2018-07-19T12:09:16.967Z,98692.31
2018-07-19T12:11:45.093Z,98689.84
2018-07-19T12:14:13.873Z,98693.95
2018-07-19T12:16:42.354Z,98691.22
2018-07-19T12:19:10.601Z,98688.20
2018-07-19T12:21:38.732Z,98683.09
2018-07-19T12:24:07.826Z,98685.33
2018-07-19T12:26:36.720Z,98681.27
2018-07-19T12:29:04.852Z,98686.41
2018-07-19T12:31:33.020Z,98680.52
2018-07-19T12:34:01.499Z,98677.67
2018-07-19T12:36:29.663Z,98674.19
2018-07-19T12:38:58.003Z,98686.28
2018-07-19T12:41:26.126Z,98672.35
2018-07-19T12:43:54.205Z,98676.38
2018-07-19T12:46:22.313Z,98666.40
2018-07-19T12:48:50.370Z,98668.27
